Flight Track Log - Related Links

Times and Time Zones

All times are in EDT time to prevent confusion due to time zone crossing. See the KAL61 flight status page for this flight to view local times or setup timezone preferences in your user account.

Time Position Orientation Groundspeed Altitude Reporting Facility
EDT Latitude Longitude Course Direction KTS MPH feet Rate Location/Type
Mon 10:18:30 PM 33.9333 -118.4500 241° Southwest 188 216 1,600  Level Southern California TRACON
Mon 10:19:42 PM 33.9056 -118.5094 241° Southwest 202 232 3,500 1,343 Climbing Los Angeles Center
Mon 10:20:44 PM 33.8497 -118.5519 212° Southwest 255 293 4,600 1,403 Climbing Los Angeles Center
Mon 10:21:46 PM 33.7828 -118.5403 172° South 270 311 6,400 1,805 Climbing Los Angeles Center
Mon 10:22:47 PM 33.7108 -118.5114 162° South 289 333 8,300 1,951 Climbing Los Angeles Center
Mon 10:23:49 PM 33.6578 -118.4125 123° Southeast 298 343 10,400 1,512 Climbing Los Angeles Center
Mon 10:24:50 PM 33.6408 -118.3264 103° East 327 376 11,400 1,366 Climbing Los Angeles Center
Mon 10:25:52 PM 33.6131 -118.1881 104° East 359 413 13,200 1,935 Climbing Los Angeles Center
Mon 10:26:54 PM 33.5925 -118.0572 101° East 400 460 15,400 2,323 Climbing Los Angeles Center
Mon 10:27:56 PM 33.5800 -117.8953 95° East 415 478 18,000 2,074 Climbing Los Angeles Center
Mon 10:29:10 PM 33.5419 -117.7617 109° East 426 490 20,100 1,822 Climbing Los Angeles Center
Mon 10:30:11 PM 33.4942 -117.6289 113° Southeast 433 498 22,100 1,951 Climbing Los Angeles Center
Mon 10:31:13 PM 33.4381 -117.4650 112° Southeast 446 513 24,100 1,839 Climbing Los Angeles Center
Mon 10:32:15 PM 33.3894 -117.3192 112° Southeast 449 517 25,900 1,415 Climbing Los Angeles Center
Mon 10:33:16 PM 33.3531 -117.2128 112° Southeast 459 528 27,000 1,268 Climbing Los Angeles Center
Mon 10:34:18 PM 33.2825 -117.0369 116° Southeast 478 550 28,500 1,355 Climbing Los Angeles Center
Mon 10:35:20 PM 33.2161 -116.8997 120° Southeast 477 549 29,800 1,171 Climbing Los Angeles Center
Mon 10:36:21 PM 33.1497 -116.7589 119° Southeast 486 559 30,900 537 Climbing Los Angeles Center
Mon 10:37:23 PM 33.0700 -116.5900 119° Southeast 486 559 30,900 48 Level Los Angeles Center
Mon 10:38:25 PM 33.0067 -116.4594 120° Southeast 498 573 31,000 49 Climbing Los Angeles Center
Mon 10:39:26 PM 32.9394 -116.3189 120° Southeast 493 567 31,000 -49 Level Los Angeles Center
Mon 10:40:28 PM 32.8572 -116.1603 122° Southeast 494 568 30,900  Descending Los Angeles Center
Mon 10:41:29 PM 32.7872 -116.0206 121° Southeast 490 564 31,000  Climbing Los Angeles Center
Mon 10:42:31 PM 32.7175 -115.8825 121° Southeast 488 562 30,900 -48 Descending Los Angeles Center
Mon 10:43:33 PM 32.6475 -115.7439 121° Southeast 489 563 30,900  Level Los Angeles Center
Mon 10:45:00 PM 32.5385 -115.5521 124° Southeast  Level FlightAware Approximate
Mon 10:52:00 PM 32.0082 -114.6329 124° Southeast  Level FlightAware Approximate
Mon 10:53:00 PM 31.9321 -114.5012 123° Southeast  Level FlightAware Approximate
Mon 10:54:00 PM 31.8582 -114.3689 123° Southeast  Level FlightAware Approximate
Mon 10:55:00 PM 31.7843 -114.2369 123° Southeast  Level FlightAware Approximate
Mon 10:56:00 PM 31.7100 -114.1052 124° Southeast  Level FlightAware Approximate
Mon 10:57:00 PM 31.6340 -113.9749 124° Southeast  Level FlightAware Approximate
Mon 10:58:00 PM 31.5593 -113.8437 123° Southeast  Level FlightAware Approximate
Mon 10:59:00 PM 31.4856 -113.7118 123° Southeast  Level FlightAware Approximate
Mon 11:00:00 PM 31.4118 -113.5802 123° Southeast  Level FlightAware Approximate
Mon 11:01:00 PM 31.3401 -113.4470 120° Southeast  Level FlightAware Approximate
Mon 11:02:00 PM 31.2719 -113.3115 120° Southeast  Level FlightAware Approximate
Mon 11:03:00 PM 31.2035 -113.1761 121° Southeast  Level FlightAware Approximate
Mon 11:04:00 PM 31.1350 -113.0409 121° Southeast  Level FlightAware Approximate
Mon 11:05:00 PM 31.0664 -112.9060 121° Southeast  Level FlightAware Approximate
Mon 11:06:00 PM 30.9977 -112.7712 121° Southeast  Level FlightAware Approximate
Mon 11:07:00 PM 30.9287 -112.6366 121° Southeast  Level FlightAware Approximate
Mon 11:08:00 PM 30.8597 -112.5022 121° Southeast  Level FlightAware Approximate
Mon 11:09:00 PM 30.7883 -112.3696 122° Southeast  Level FlightAware Approximate
Mon 11:10:00 PM 30.7164 -112.2374 122° Southeast  Level FlightAware Approximate
Mon 11:11:00 PM 30.6444 -112.1054 122° Southeast  Level FlightAware Approximate
Mon 11:12:00 PM 30.5723 -111.9736 122° Southeast  Level FlightAware Approximate
Mon 11:13:00 PM 30.5000 -111.8421 122° Southeast  Level FlightAware Approximate
Mon 11:14:00 PM 30.4276 -111.7107 123° Southeast  Level FlightAware Approximate
Mon 11:15:00 PM 30.3551 -111.5795 123° Southeast  Level FlightAware Approximate
Mon 11:16:00 PM 30.2824 -111.4485 123° Southeast  Level FlightAware Approximate
Mon 11:17:00 PM 30.2096 -111.3177 123° Southeast  Level FlightAware Approximate
Mon 11:18:00 PM 30.1367 -111.1871 123° Southeast  Level FlightAware Approximate
Mon 11:19:00 PM 30.0636 -111.0567 123° Southeast  Level FlightAware Approximate
Mon 11:20:00 PM 29.9904 -110.9265 123° Southeast  Level FlightAware Approximate
Mon 11:21:00 PM 29.9171 -110.7964 123° Southeast  Level FlightAware Approximate
Mon 11:22:00 PM 29.8437 -110.6666 123° Southeast  Level FlightAware Approximate
Mon 11:23:00 PM 29.7701 -110.5369 123° Southeast  Level FlightAware Approximate
Mon 11:24:00 PM 29.6964 -110.4075 123° Southeast  Level FlightAware Approximate
Mon 11:25:00 PM 29.6226 -110.2782 123° Southeast  Level FlightAware Approximate
Mon 11:26:00 PM 29.5487 -110.1491 123° Southeast  Level FlightAware Approximate
Mon 11:27:00 PM 29.4746 -110.0202 123° Southeast  Level FlightAware Approximate
Mon 11:28:00 PM 29.4004 -109.8915 123° Southeast  Level FlightAware Approximate
Mon 11:29:00 PM 29.3261 -109.7630 124° Southeast  Level FlightAware Approximate
Mon 11:30:00 PM 29.2516 -109.6347 124° Southeast  Level FlightAware Approximate
Mon 11:31:00 PM 29.1771 -109.5066 124° Southeast  Level FlightAware Approximate
Mon 11:32:00 PM 29.1024 -109.3786 124° Southeast  Level FlightAware Approximate
Mon 11:33:00 PM 29.0276 -109.2508 124° Southeast  Level FlightAware Approximate
Mon 11:34:00 PM 28.9527 -109.1233 124° Southeast  Level FlightAware Approximate
Mon 11:35:00 PM 28.8776 -108.9959 124° Southeast  Level FlightAware Approximate
Mon 11:36:00 PM 28.8025 -108.8687 124° Southeast  Level FlightAware Approximate
Mon 11:37:00 PM 28.7272 -108.7416 124° Southeast  Level FlightAware Approximate
Mon 11:38:00 PM 28.6518 -108.6148 124° Southeast  Level FlightAware Approximate
Mon 11:39:00 PM 28.5763 -108.4880 124° Southeast  Level FlightAware Approximate
Mon 11:40:00 PM 28.5019 -108.3606 124° Southeast  Level FlightAware Approximate
Mon 11:41:00 PM 28.4274 -108.2334 124° Southeast  Level FlightAware Approximate
Mon 11:42:00 PM 28.3527 -108.1064 124° Southeast  Level FlightAware Approximate
Mon 11:43:00 PM 28.2779 -107.9795 124° Southeast  Level FlightAware Approximate
Mon 11:44:00 PM 28.2030 -107.8528 124° Southeast  Level FlightAware Approximate
Mon 11:45:00 PM 28.1280 -107.7263 124° Southeast  Level FlightAware Approximate
Mon 11:46:00 PM 28.0528 -107.6000 124° Southeast  Level FlightAware Approximate
Mon 11:47:00 PM 27.9776 -107.4738 124° Southeast  Level FlightAware Approximate
Mon 11:48:00 PM 27.9022 -107.3478 124° Southeast  Level FlightAware Approximate
Mon 11:49:00 PM 27.8267 -107.2220 124° Southeast  Level FlightAware Approximate
Mon 11:50:00 PM 27.7511 -107.0964 124° Southeast  Level FlightAware Approximate
Mon 11:51:00 PM 27.6754 -106.9709 124° Southeast  Level FlightAware Approximate
Mon 11:52:00 PM 27.5996 -106.8457 124° Southeast  Level FlightAware Approximate
Mon 11:53:00 PM 27.5236 -106.7206 124° Southeast  Level FlightAware Approximate
Mon 11:54:00 PM 27.4476 -106.5956 124° Southeast  Level FlightAware Approximate
Mon 11:55:00 PM 27.3714 -106.4709 124° Southeast  Level FlightAware Approximate
Mon 11:56:00 PM 27.2952 -106.3463 125° Southeast  Level FlightAware Approximate
Mon 11:57:00 PM 27.2188 -106.2218 125° Southeast  Level FlightAware Approximate
Mon 11:58:00 PM 27.1423 -106.0976 125° Southeast  Level FlightAware Approximate
Mon 11:59:00 PM 27.0657 -105.9735 125° Southeast  Level FlightAware Approximate
Tue 12:00:00 AM 26.9890 -105.8496 125° Southeast  Level FlightAware Approximate
Tue 12:01:00 AM 26.9122 -105.7259 125° Southeast  Level FlightAware Approximate
Tue 12:02:00 AM 26.8352 -105.6023 125° Southeast  Level FlightAware Approximate
Tue 12:03:00 AM 26.7582 -105.4789 125° Southeast  Level FlightAware Approximate
Tue 12:04:00 AM 26.6811 -105.3557 125° Southeast  Level FlightAware Approximate
Tue 12:05:00 AM 26.6038 -105.2326 125° Southeast  Level FlightAware Approximate
Tue 12:06:00 AM 26.5267 -105.1095 125° Southeast  Level FlightAware Approximate
Tue 12:07:00 AM 26.4495 -104.9866 125° Southeast  Level FlightAware Approximate
Tue 12:08:00 AM 26.3722 -104.8638 125° Southeast  Level FlightAware Approximate
Tue 12:09:00 AM 26.2947 -104.7412 125° Southeast  Level FlightAware Approximate
Tue 12:10:00 AM 26.2172 -104.6188 125° Southeast  Level FlightAware Approximate
Tue 12:11:00 AM 26.1396 -104.4965 125° Southeast  Level FlightAware Approximate
Tue 12:12:00 AM 26.0619 -104.3744 125° Southeast  Level FlightAware Approximate
Tue 12:13:00 AM 25.9841 -104.2524 125° Southeast  Level FlightAware Approximate
Tue 12:14:00 AM 25.9061 -104.1306 125° Southeast  Level FlightAware Approximate
Tue 12:15:00 AM 25.8281 -104.0090 125° Southeast  Level FlightAware Approximate
Tue 12:16:00 AM 25.7500 -103.8875 126° Southeast  Level FlightAware Approximate
Tue 12:17:00 AM 25.6717 -103.7662 126° Southeast  Level FlightAware Approximate
Tue 12:18:00 AM 25.5934 -103.6450 126° Southeast  Level FlightAware Approximate
Tue 12:19:00 AM 25.5150 -103.5240 126° Southeast  Level FlightAware Approximate
Tue 12:20:00 AM 25.4364 -103.4032 126° Southeast  Level FlightAware Approximate
Tue 12:21:00 AM 25.3578 -103.2825 126° Southeast  Level FlightAware Approximate
Tue 12:22:00 AM 25.2791 -103.1620 126° Southeast  Level FlightAware Approximate
Tue 12:23:00 AM 25.2001 -103.0417 126° Southeast  Level FlightAware Approximate
Tue 12:24:00 AM 25.1205 -102.9221 126° Southeast  Level FlightAware Approximate
Tue 12:25:00 AM 25.0408 -102.8026 126° Southeast  Level FlightAware Approximate
Tue 12:26:00 AM 24.9611 -102.6832 126° Southeast  Level FlightAware Approximate
Tue 12:27:00 AM 24.8815 -102.5638 126° Southeast  Level FlightAware Approximate
Tue 12:28:00 AM 24.8019 -102.4444 126° Southeast  Level FlightAware Approximate
Tue 12:29:00 AM 24.7226 -102.3249 126° Southeast  Level FlightAware Approximate
Tue 12:30:00 AM 24.6432 -102.2055 126° Southeast  Level FlightAware Approximate
Tue 12:31:00 AM 24.5637 -102.0863 126° Southeast  Level FlightAware Approximate
Tue 12:32:00 AM 24.4841 -101.9672 126° Southeast  Level FlightAware Approximate
Tue 12:33:00 AM 24.4050 -101.8479 124° Southeast  Level FlightAware Approximate
Tue 12:34:00 AM 24.3291 -101.7261 124° Southeast  Level FlightAware Approximate
Tue 12:35:00 AM 24.2530 -101.6045 124° Southeast  Level FlightAware Approximate
Tue 12:36:00 AM 24.1769 -101.4830 124° Southeast  Level FlightAware Approximate
Tue 12:37:00 AM 24.0884 -101.3724 132° Southeast  Level FlightAware Approximate
Tue 12:38:00 AM 23.9978 -101.2636 132° Southeast  Level FlightAware Approximate
Tue 12:39:00 AM 23.9072 -101.1550 132° Southeast  Level FlightAware Approximate
Tue 12:40:00 AM 23.8165 -101.0465 132° Southeast  Level FlightAware Approximate
Tue 12:41:00 AM 23.7258 -100.9382 132° Southeast  Level FlightAware Approximate
Tue 12:42:00 AM 23.6349 -100.8300 132° Southeast  Level FlightAware Approximate
Tue 12:43:00 AM 23.5440 -100.7220 133° Southeast  Level FlightAware Approximate
Tue 12:44:00 AM 23.4522 -100.6150 131° Southeast  Level FlightAware Approximate
Tue 12:45:00 AM 23.3647 -100.5039 131° Southeast  Level FlightAware Approximate
Tue 12:46:00 AM 23.2770 -100.3929 131° Southeast  Level FlightAware Approximate
Tue 12:47:00 AM 23.1887 -100.2827 132° Southeast  Level FlightAware Approximate
Tue 12:48:00 AM 23.0988 -100.1740 132° Southeast  Level FlightAware Approximate
Tue 12:49:00 AM 23.0089 -100.0654 132° Southeast  Level FlightAware Approximate
Tue 12:50:00 AM 22.9189 -99.9569 132° Southeast  Level FlightAware Approximate
Tue 12:51:00 AM 22.8289 -99.8486 132° Southeast  Level FlightAware Approximate
Tue 12:52:00 AM 22.7388 -99.7404 132° Southeast  Level FlightAware Approximate
Tue 12:53:00 AM 22.6486 -99.6324 132° Southeast  Level FlightAware Approximate
Tue 12:54:00 AM 22.5583 -99.5245 132° Southeast  Level FlightAware Approximate
Tue 12:55:00 AM 22.4680 -99.4168 132° Southeast  Level FlightAware Approximate
Tue 12:56:00 AM 22.3775 -99.3092 132° Southeast  Level FlightAware Approximate
Tue 12:57:00 AM 22.2871 -99.2017 132° Southeast  Level FlightAware Approximate
Tue 12:58:00 AM 22.1965 -99.0944 132° Southeast  Level FlightAware Approximate
Tue 12:59:00 AM 22.1059 -98.9872 132° Southeast  Level FlightAware Approximate
Tue 01:00:00 AM 22.0159 -98.8795 132° Southeast  Level FlightAware Approximate
Tue 01:01:00 AM 21.9258 -98.7720 132° Southeast  Level FlightAware Approximate
Tue 01:02:00 AM 21.8356 -98.6646 132° Southeast  Level FlightAware Approximate
Tue 01:03:00 AM 21.7453 -98.5573 132° Southeast  Level FlightAware Approximate
Tue 01:04:00 AM 21.6550 -98.4502 132° Southeast  Level FlightAware Approximate
Tue 01:05:00 AM 21.5646 -98.3432 132° Southeast  Level FlightAware Approximate
Tue 01:06:00 AM 21.4741 -98.2363 132° Southeast  Level FlightAware Approximate
Tue 01:07:00 AM 21.3836 -98.1296 132° Southeast  Level FlightAware Approximate
Tue 01:08:00 AM 21.2930 -98.0230 132° Southeast  Level FlightAware Approximate
Tue 01:09:00 AM 21.2022 -97.9166 133° Southeast  Level FlightAware Approximate
Tue 01:10:00 AM 21.1108 -97.8110 133° Southeast  Level FlightAware Approximate
Tue 01:11:00 AM 21.0192 -97.7055 133° Southeast  Level FlightAware Approximate
Tue 01:12:00 AM 20.9277 -97.6001 133° Southeast  Level FlightAware Approximate
Tue 01:13:00 AM 20.8360 -97.4949 133° Southeast  Level FlightAware Approximate
Tue 01:14:00 AM 20.7443 -97.3898 133° Southeast  Level FlightAware Approximate
Tue 01:15:00 AM 20.6525 -97.2848 133° Southeast  Level FlightAware Approximate
Tue 01:16:00 AM 20.5607 -97.1799 133° Southeast  Level FlightAware Approximate
Tue 01:17:00 AM 20.4688 -97.0752 133° Southeast  Level FlightAware Approximate
Tue 01:18:00 AM 20.3768 -96.9706 133° Southeast  Level FlightAware Approximate
Tue 01:19:00 AM 20.2850 -96.8659 132° Southeast  Level FlightAware Approximate
Tue 01:20:00 AM 20.1949 -96.7597 128° Southeast  Level FlightAware Approximate
Tue 01:21:00 AM 20.1119 -96.6469 128° Southeast  Level FlightAware Approximate
Tue 01:22:00 AM 20.0290 -96.5344 128° Southeast  Level FlightAware Approximate
Tue 01:23:00 AM 19.9459 -96.4219 128° Southeast  Level FlightAware Approximate
Tue 01:24:00 AM 19.8628 -96.3095 128° Southeast  Level FlightAware Approximate
Tue 01:25:00 AM 19.7796 -96.1973 128° Southeast  Level FlightAware Approximate
Tue 01:26:00 AM 19.6964 -96.0852 128° Southeast  Level FlightAware Approximate
Tue 01:27:00 AM 19.6131 -95.9732 128° Southeast  Level FlightAware Approximate
Tue 01:28:00 AM 19.5297 -95.8613 128° Southeast  Level FlightAware Approximate
Tue 01:29:00 AM 19.4462 -95.7495 128° Southeast  Level FlightAware Approximate
Tue 01:30:00 AM 19.3627 -95.6379 128° Southeast  Level FlightAware Approximate
Tue 01:31:00 AM 19.2791 -95.5264 128° Southeast  Level FlightAware Approximate
Tue 01:32:00 AM 19.1954 -95.4149 128° Southeast  Level FlightAware Approximate
Tue 01:33:00 AM 19.1117 -95.3036 129° Southeast  Level FlightAware Approximate
Tue 01:34:00 AM 19.0279 -95.1924 129° Southeast  Level FlightAware Approximate
Tue 01:35:00 AM 18.9441 -95.0812 128° Southeast  Level FlightAware Approximate
Tue 01:36:00 AM 18.8604 -94.9701 129° Southeast  Level FlightAware Approximate
Tue 01:37:00 AM 18.7766 -94.8591 129° Southeast  Level FlightAware Approximate
Tue 01:38:00 AM 18.6927 -94.7482 129° Southeast  Level FlightAware Approximate
Tue 01:39:00 AM 18.6088 -94.6373 129° Southeast  Level FlightAware Approximate
Tue 01:40:00 AM 18.5248 -94.5266 129° Southeast  Level FlightAware Approximate
Tue 01:41:00 AM 18.4408 -94.4161 129° Southeast  Level FlightAware Approximate
Tue 01:42:00 AM 18.3566 -94.3056 129° Southeast  Level FlightAware Approximate
Tue 01:43:00 AM 18.2724 -94.1952 129° Southeast  Level FlightAware Approximate
Tue 01:44:00 AM 18.1882 -94.0849 129° Southeast  Level FlightAware Approximate
Tue 01:45:00 AM 18.1039 -93.9748 129° Southeast  Level FlightAware Approximate
Tue 01:46:00 AM 18.0195 -93.8647 129° Southeast  Level FlightAware Approximate
Tue 01:47:00 AM 17.9351 -93.7548 129° Southeast  Level FlightAware Approximate
Tue 01:48:00 AM 17.8506 -93.6449 129° Southeast  Level FlightAware Approximate
Tue 01:49:00 AM 17.7660 -93.5352 129° Southeast  Level FlightAware Approximate
Tue 01:50:00 AM 17.6814 -93.4255 129° Southeast  Level FlightAware Approximate
Tue 01:51:00 AM 17.5967 -93.3160 129° Southeast  Level FlightAware Approximate
Tue 01:52:00 AM 17.5120 -93.2066 129° Southeast  Level FlightAware Approximate
Tue 01:53:00 AM 17.4272 -93.0972 129° Southeast  Level FlightAware Approximate
Tue 01:54:00 AM 17.3423 -92.9880 129° Southeast  Level FlightAware Approximate
Tue 01:55:00 AM 17.2574 -92.8789 129° Southeast  Level FlightAware Approximate
Tue 01:56:00 AM 17.1724 -92.7698 129° Southeast  Level FlightAware Approximate
Tue 01:57:00 AM 17.0874 -92.6609 129° Southeast  Level FlightAware Approximate
Tue 01:58:00 AM 17.0023 -92.5521 129° Southeast  Level FlightAware Approximate
Tue 01:59:00 AM 16.9171 -92.4433 129° Southeast  Level FlightAware Approximate
Tue 02:00:00 AM 16.8319 -92.3347 129° Southeast  Level FlightAware Approximate
Tue 02:01:00 AM 16.7466 -92.2262 129° Southeast  Level FlightAware Approximate
Tue 02:02:00 AM 16.6613 -92.1177 129° Southeast  Level FlightAware Approximate
Tue 02:03:00 AM 16.5759 -92.0094 129° Southeast  Level FlightAware Approximate
Tue 02:04:00 AM 16.4905 -91.9012 129° Southeast  Level FlightAware Approximate
Tue 02:05:00 AM 16.4050 -91.7930 129° Southeast  Level FlightAware Approximate
Tue 02:06:00 AM 16.3194 -91.6850 130° Southeast  Level FlightAware Approximate
Tue 02:07:00 AM 16.2338 -91.5770 130° Southeast  Level FlightAware Approximate
Tue 02:08:00 AM 16.1482 -91.4691 130° Southeast  Level FlightAware Approximate
Tue 02:09:00 AM 16.0624 -91.3614 130° Southeast  Level FlightAware Approximate
Tue 02:10:00 AM 15.9764 -91.2539 130° Southeast  Level FlightAware Approximate
Tue 02:11:00 AM 15.8903 -91.1466 130° Southeast  Level FlightAware Approximate
Tue 02:12:00 AM 15.8042 -91.0393 130° Southeast  Level FlightAware Approximate
Tue 02:13:00 AM 15.7180 -90.9322 130° Southeast  Level FlightAware Approximate
Tue 02:14:00 AM 15.6317 -90.8251 130° Southeast  Level FlightAware Approximate
Tue 02:15:00 AM 15.5454 -90.7181 130° Southeast  Level FlightAware Approximate
Tue 02:16:00 AM 15.4591 -90.6112 130° Southeast  Level FlightAware Approximate
Tue 02:17:00 AM 15.3727 -90.5044 130° Southeast  Level FlightAware Approximate
Tue 02:18:00 AM 15.2862 -90.3977 130° Southeast  Level FlightAware Approximate
Tue 02:19:00 AM 15.1997 -90.2910 130° Southeast  Level FlightAware Approximate
Tue 02:20:00 AM 15.1132 -90.1845 130° Southeast  Level FlightAware Approximate
Tue 02:21:00 AM 15.0266 -90.0780 130° Southeast  Level FlightAware Approximate
Tue 02:22:00 AM 14.9399 -89.9716 130° Southeast  Level FlightAware Approximate
Tue 02:23:00 AM 14.8532 -89.8653 130° Southeast  Level FlightAware Approximate
Tue 02:24:00 AM 14.7665 -89.7591 130° Southeast  Level FlightAware Approximate
Tue 02:25:00 AM 14.6797 -89.6530 130° Southeast  Level FlightAware Approximate
Tue 02:26:00 AM 14.5928 -89.5470 130° Southeast  Level FlightAware Approximate
Tue 02:27:00 AM 14.5060 -89.4410 130° Southeast  Level FlightAware Approximate
Tue 02:28:00 AM 14.4190 -89.3352 130° Southeast  Level FlightAware Approximate
Tue 02:29:00 AM 14.3320 -89.2294 130° Southeast  Level FlightAware Approximate
Tue 02:30:00 AM 14.2450 -89.1237 130° Southeast  Level FlightAware Approximate
Tue 02:31:00 AM 14.1578 -89.0182 130° Southeast  Level FlightAware Approximate
Tue 02:32:00 AM 14.0706 -88.9127 130° Southeast  Level FlightAware Approximate
Tue 02:33:00 AM 13.9833 -88.8073 130° Southeast  Level FlightAware Approximate
Tue 02:34:00 AM 13.8960 -88.7020 130° Southeast  Level FlightAware Approximate
Tue 02:35:00 AM 13.8089 -88.5966 130° Southeast  Level FlightAware Approximate
Tue 02:36:00 AM 13.7219 -88.4911 130° Southeast  Level FlightAware Approximate
Tue 02:37:00 AM 13.6348 -88.3857 130° Southeast  Level FlightAware Approximate
Tue 02:38:00 AM 13.5477 -88.2804 130° Southeast  Level FlightAware Approximate
Tue 02:39:00 AM 13.4605 -88.1752 130° Southeast  Level FlightAware Approximate
Tue 02:40:00 AM 13.3733 -88.0700 130° Southeast  Level FlightAware Approximate
Tue 02:41:00 AM 13.2861 -87.9649 130° Southeast  Level FlightAware Approximate
Tue 02:42:00 AM 13.1988 -87.8599 130° Southeast  Level FlightAware Approximate
Tue 02:43:00 AM 13.1114 -87.7550 131° Southeast  Level FlightAware Approximate
Tue 02:44:00 AM 13.0240 -87.6502 131° Southeast  Level FlightAware Approximate
Tue 02:45:00 AM 12.9366 -87.5454 131° Southeast  Level FlightAware Approximate
Tue 02:46:00 AM 12.8492 -87.4407 131° Southeast  Level FlightAware Approximate
Tue 02:47:00 AM 12.7617 -87.3360 131° Southeast  Level FlightAware Approximate
Tue 02:48:00 AM 12.6741 -87.2315 131° Southeast  Level FlightAware Approximate
Tue 02:49:00 AM 12.5865 -87.1270 131° Southeast  Level FlightAware Approximate
Tue 02:50:00 AM 12.4989 -87.0226 131° Southeast  Level FlightAware Approximate
Tue 02:51:00 AM 12.4112 -86.9182 131° Southeast  Level FlightAware Approximate
Tue 02:52:00 AM 12.3235 -86.8139 131° Southeast  Level FlightAware Approximate
Tue 02:53:00 AM 12.2358 -86.7097 131° Southeast  Level FlightAware Approximate
Tue 02:54:00 AM 12.1480 -86.6056 131° Southeast  Level FlightAware Approximate
Tue 02:55:00 AM 12.0602 -86.5015 131° Southeast  Level FlightAware Approximate
Tue 02:56:00 AM 11.9682 -86.4015 136° Southeast  Level FlightAware Approximate
Tue 02:57:00 AM 11.8770 -86.3007 131° Southeast  Level FlightAware Approximate
Tue 02:58:00 AM 11.7886 -86.1973 131° Southeast  Level FlightAware Approximate
Tue 02:59:00 AM 11.7001 -86.0939 131° Southeast  Level FlightAware Approximate
Tue 03:00:00 AM 11.6116 -85.9906 131° Southeast  Level FlightAware Approximate
Tue 03:01:00 AM 11.5231 -85.8874 131° Southeast  Level FlightAware Approximate
Tue 03:02:00 AM 11.4345 -85.7842 131° Southeast  Level FlightAware Approximate
Tue 03:03:00 AM 11.3459 -85.6811 131° Southeast  Level FlightAware Approximate
Tue 03:04:00 AM 11.2572 -85.5781 131° Southeast  Level FlightAware Approximate
Tue 03:05:00 AM 11.1685 -85.4751 131° Southeast  Level FlightAware Approximate
Tue 03:06:00 AM 11.0798 -85.3722 131° Southeast  Level FlightAware Approximate
Tue 03:07:00 AM 10.9911 -85.2693 131° Southeast  Level FlightAware Approximate
Tue 03:08:00 AM 10.9023 -85.1665 131° Southeast  Level FlightAware Approximate
Tue 03:09:00 AM 10.8135 -85.0638 131° Southeast  Level FlightAware Approximate
Tue 03:10:00 AM 10.7246 -84.9611 131° Southeast  Level FlightAware Approximate
Tue 03:11:00 AM 10.6357 -84.8585 131° Southeast  Level FlightAware Approximate
Tue 03:12:00 AM 10.5468 -84.7560 131° Southeast  Level FlightAware Approximate
Tue 03:13:00 AM 10.4579 -84.6535 131° Southeast  Level FlightAware Approximate
Tue 03:14:00 AM 10.3689 -84.5510 131° Southeast  Level FlightAware Approximate
Tue 03:15:00 AM 10.2799 -84.4487 131° Southeast  Level FlightAware Approximate
Tue 03:16:00 AM 10.1908 -84.3464 131° Southeast  Level FlightAware Approximate
Tue 03:17:00 AM 10.1017 -84.2441 132° Southeast  Level FlightAware Approximate
Tue 03:18:00 AM 10.0126 -84.1419 132° Southeast  Level FlightAware Approximate
Tue 03:19:00 AM 9.9235 -84.0398 132° Southeast  Level FlightAware Approximate
Tue 03:20:00 AM 9.8343 -83.9377 132° Southeast  Level FlightAware Approximate
Tue 03:21:00 AM 9.7451 -83.8356 132° Southeast  Level FlightAware Approximate
Tue 03:22:00 AM 9.6558 -83.7337 132° Southeast  Level FlightAware Approximate
Tue 03:23:00 AM 9.5666 -83.6318 132° Southeast  Level FlightAware Approximate
Tue 03:24:00 AM 9.4773 -83.5299 132° Southeast  Level FlightAware Approximate
Tue 03:25:00 AM 9.3879 -83.4281 132° Southeast  Level FlightAware Approximate
Tue 03:26:00 AM 9.2986 -83.3263 132° Southeast  Level FlightAware Approximate
Tue 03:27:00 AM 9.2092 -83.2246 132° Southeast  Level FlightAware Approximate
Tue 03:28:00 AM 9.1198 -83.1229 132° Southeast  Level FlightAware Approximate
Tue 03:29:00 AM 9.0304 -83.0213 132° Southeast  Level FlightAware Approximate
Tue 03:30:00 AM 8.9409 -82.9197 132° Southeast  Level FlightAware Approximate
Tue 03:31:00 AM 8.8514 -82.8182 132° Southeast  Level FlightAware Approximate
Tue 03:32:00 AM 8.7599 -82.7187 133° Southeast  Level FlightAware Approximate
Tue 03:33:00 AM 8.6683 -82.6191 133° Southeast  Level FlightAware Approximate
Tue 03:34:00 AM 8.5766 -82.5197 133° Southeast  Level FlightAware Approximate
Tue 03:35:00 AM 8.4850 -82.4202 133° Southeast  Level FlightAware Approximate
Tue 03:36:00 AM 8.3933 -82.3209 133° Southeast  Level FlightAware Approximate
Tue 03:37:00 AM 8.3016 -82.2215 133° Southeast  Level FlightAware Approximate
Tue 03:38:00 AM 8.2099 -82.1223 133° Southeast  Level FlightAware Approximate
Tue 03:39:00 AM 8.1181 -82.0230 133° Southeast  Level FlightAware Approximate
Tue 03:40:00 AM 8.0264 -81.9238 133° Southeast  Level FlightAware Approximate
Tue 03:41:00 AM 7.9346 -81.8247 133° Southeast  Level FlightAware Approximate
Tue 03:42:00 AM 7.8428 -81.7256 133° Southeast  Level FlightAware Approximate
Tue 03:43:00 AM 7.7509 -81.6265 133° Southeast  Level FlightAware Approximate
Tue 03:44:00 AM 7.6590 -81.5275 133° Southeast  Level FlightAware Approximate
Tue 03:45:00 AM 7.5672 -81.4285 133° Southeast  Level FlightAware Approximate
Tue 03:46:00 AM 7.4752 -81.3296 133° Southeast  Level FlightAware Approximate
Tue 03:47:00 AM 7.3833 -81.2307 133° Southeast  Level FlightAware Approximate
Tue 03:48:00 AM 7.2914 -81.1319 133° Southeast  Level FlightAware Approximate
Tue 03:49:00 AM 7.1994 -81.0331 133° Southeast  Level FlightAware Approximate
Tue 03:50:00 AM 7.1074 -80.9343 133° Southeast  Level FlightAware Approximate
Tue 03:51:00 AM 7.0154 -80.8355 133° Southeast  Level FlightAware Approximate
Tue 03:52:00 AM 6.9235 -80.7367 133° Southeast  Level FlightAware Approximate
Tue 03:53:00 AM 6.8319 -80.6376 133° Southeast  Level FlightAware Approximate
Tue 03:54:00 AM 6.7402 -80.5386 133° Southeast  Level FlightAware Approximate
Tue 03:55:00 AM 6.6485 -80.4397 133° Southeast  Level FlightAware Approximate
Tue 03:56:00 AM 6.5568 -80.3408 133° Southeast  Level FlightAware Approximate
Tue 03:57:00 AM 6.4651 -80.2419 133° Southeast  Level FlightAware Approximate
Tue 03:58:00 AM 6.3733 -80.1430 133° Southeast  Level FlightAware Approximate
Tue 03:59:00 AM 6.2813 -80.0444 133° Southeast  Level FlightAware Approximate
Tue 04:00:00 AM 6.1892 -79.9459 133° Southeast  Level FlightAware Approximate
Tue 04:01:00 AM 6.0971 -79.8475 133° Southeast  Level FlightAware Approximate
Tue 04:02:00 AM 6.0049 -79.7491 133° Southeast  Level FlightAware Approximate
Tue 04:03:00 AM 5.9128 -79.6507 133° Southeast  Level FlightAware Approximate
Tue 04:04:00 AM 5.8206 -79.5524 133° Southeast  Level FlightAware Approximate
Tue 04:05:00 AM 5.7284 -79.4541 133° Southeast  Level FlightAware Approximate
Tue 04:06:00 AM 5.6361 -79.3558 133° Southeast  Level FlightAware Approximate
Tue 04:07:00 AM 5.5439 -79.2576 133° Southeast  Level FlightAware Approximate
Tue 04:08:00 AM 5.4517 -79.1593 133° Southeast  Level FlightAware Approximate
Tue 04:09:00 AM 5.3594 -79.0612 133° Southeast  Level FlightAware Approximate
Tue 04:10:00 AM 5.2671 -78.9630 133° Southeast  Level FlightAware Approximate
Tue 04:11:00 AM 5.1748 -78.8649 133° Southeast  Level FlightAware Approximate
Tue 04:12:00 AM 5.0825 -78.7668 133° Southeast  Level FlightAware Approximate
Tue 04:13:00 AM 4.9900 -78.6688 133° Southeast  Level FlightAware Approximate
Tue 04:14:00 AM 4.8976 -78.5709 133° Southeast  Level FlightAware Approximate
Tue 04:15:00 AM 4.8051 -78.4731 133° Southeast  Level FlightAware Approximate
Tue 04:16:00 AM 4.7126 -78.3752 133° Southeast  Level FlightAware Approximate
Tue 04:17:00 AM 4.6200 -78.2774 133° Southeast  Level FlightAware Approximate
Tue 04:18:00 AM 4.5275 -78.1796 134° Southeast  Level FlightAware Approximate
Tue 04:19:00 AM 4.4349 -78.0818 134° Southeast  Level FlightAware Approximate
Tue 04:20:00 AM 4.3424 -77.9840 134° Southeast  Level FlightAware Approximate
Tue 04:21:00 AM 4.2498 -77.8863 134° Southeast  Level FlightAware Approximate
Tue 04:22:00 AM 4.1572 -77.7886 134° Southeast  Level FlightAware Approximate
Tue 04:23:00 AM 4.0646 -77.6909 134° Southeast  Level FlightAware Approximate
Tue 04:24:00 AM 3.9720 -77.5933 134° Southeast  Level FlightAware Approximate
Tue 04:25:00 AM 3.8794 -77.4956 134° Southeast  Level FlightAware Approximate
Tue 04:26:00 AM 3.7868 -77.3980 134° Southeast  Level FlightAware Approximate
Tue 04:27:00 AM 3.6941 -77.3004 134° Southeast  Level FlightAware Approximate
Tue 04:28:00 AM 3.6015 -77.2028 134° Southeast  Level FlightAware Approximate
Tue 04:29:00 AM 3.5088 -77.1053 134° Southeast  Level FlightAware Approximate
Tue 04:30:00 AM 3.4161 -77.0077 134° Southeast  Level FlightAware Approximate
Tue 04:31:00 AM 3.3234 -76.9102 134° Southeast  Level FlightAware Approximate
Tue 04:32:00 AM 3.2308 -76.8127 134° Southeast  Level FlightAware Approximate
Tue 04:33:00 AM 3.1381 -76.7152 134° Southeast  Level FlightAware Approximate
Tue 04:34:00 AM 3.0453 -76.6178 134° Southeast  Level FlightAware Approximate
Tue 04:35:00 AM 2.9526 -76.5203 134° Southeast  Level FlightAware Approximate
Tue 04:36:00 AM 2.8599 -76.4229 134° Southeast  Level FlightAware Approximate
Tue 04:37:00 AM 2.7671 -76.3255 134° Southeast  Level FlightAware Approximate
Tue 04:38:00 AM 2.6744 -76.2281 134° Southeast  Level FlightAware Approximate
Tue 04:39:00 AM 2.5817 -76.1307 134° Southeast  Level FlightAware Approximate
Tue 04:40:00 AM 2.4889 -76.0333 134° Southeast  Level FlightAware Approximate
Tue 04:41:00 AM 2.3961 -75.9359 134° Southeast  Level FlightAware Approximate
Tue 04:42:00 AM 2.3033 -75.8386 134° Southeast  Level FlightAware Approximate
Tue 04:43:00 AM 2.2106 -75.7413 134° Southeast  Level FlightAware Approximate
Tue 04:44:00 AM 2.1178 -75.6440 134° Southeast  Level FlightAware Approximate
Tue 04:45:00 AM 2.0250 -75.5466 134° Southeast  Level FlightAware Approximate
Tue 04:46:00 AM 1.9322 -75.4493 134° Southeast  Level FlightAware Approximate
Tue 04:47:00 AM 1.8394 -75.3521 134° Southeast  Level FlightAware Approximate
Tue 04:48:00 AM 1.7465 -75.2548 134° Southeast  Level FlightAware Approximate
Tue 04:49:00 AM 1.6537 -75.1575 134° Southeast  Level FlightAware Approximate
Tue 04:50:00 AM 1.5609 -75.0602 134° Southeast  Level FlightAware Approximate
Tue 04:51:00 AM 1.4681 -74.9630 134° Southeast  Level FlightAware Approximate
Tue 04:52:00 AM 1.3752 -74.8658 134° Southeast  Level FlightAware Approximate
Tue 04:53:00 AM 1.2824 -74.7685 134° Southeast  Level FlightAware Approximate
Tue 04:54:00 AM 1.1896 -74.6713 134° Southeast  Level FlightAware Approximate
Tue 04:55:00 AM 1.0967 -74.5741 134° Southeast  Level FlightAware Approximate
Tue 04:56:00 AM 1.0039 -74.4769 134° Southeast  Level FlightAware Approximate
Tue 04:57:00 AM 0.9111 -74.3796 134° Southeast  Level FlightAware Approximate
Tue 04:58:00 AM 0.8182 -74.2824 134° Southeast  Level FlightAware Approximate
Tue 04:59:00 AM 0.7254 -74.1852 134° Southeast  Level FlightAware Approximate
Tue 05:00:00 AM 0.6325 -74.0881 134° Southeast  Level FlightAware Approximate
Tue 05:01:00 AM 0.5396 -73.9909 134° Southeast  Level FlightAware Approximate
Tue 05:02:00 AM 0.4468 -73.8937 134° Southeast  Level FlightAware Approximate
Tue 05:03:00 AM 0.3539 -73.7965 134° Southeast  Level FlightAware Approximate
Tue 05:04:00 AM 0.2611 -73.6993 134° Southeast  Level FlightAware Approximate
Tue 05:05:00 AM 0.1682 -73.6021 134° Southeast  Level FlightAware Approximate
Tue 05:06:00 AM 0.0753 -73.5050 134° Southeast  Level FlightAware Approximate
Tue 05:07:00 AM -0.0175 -73.4078 134° Southeast  Level FlightAware Approximate
Tue 05:08:00 AM -0.1104 -73.3106 134° Southeast  Level FlightAware Approximate
Tue 05:09:00 AM -0.2032 -73.2134 134° Southeast  Level FlightAware Approximate
Tue 05:10:00 AM -0.2961 -73.1162 134° Southeast  Level FlightAware Approximate
Tue 05:11:00 AM -0.3890 -73.0191 134° Southeast  Level FlightAware Approximate
Tue 05:12:00 AM -0.4818 -72.9219 134° Southeast  Level FlightAware Approximate
Tue 05:13:00 AM -0.5747 -72.8247 134° Southeast  Level FlightAware Approximate
Tue 05:14:00 AM -0.6675 -72.7275 134° Southeast  Level FlightAware Approximate
Tue 05:15:00 AM -0.7604 -72.6303 134° Southeast  Level FlightAware Approximate
Tue 05:16:00 AM -0.8532 -72.5331 134° Southeast  Level FlightAware Approximate
Tue 05:17:00 AM -0.9461 -72.4359 134° Southeast  Level FlightAware Approximate
Tue 05:18:00 AM -1.0389 -72.3387 134° Southeast  Level FlightAware Approximate
Tue 05:19:00 AM -1.1318 -72.2414 134° Southeast  Level FlightAware Approximate
Tue 05:20:00 AM -1.2246 -72.1442 134° Southeast  Level FlightAware Approximate
Tue 05:21:00 AM -1.3175 -72.0470 134° Southeast  Level FlightAware Approximate
Tue 05:22:00 AM -1.4103 -71.9498 134° Southeast  Level FlightAware Approximate
Tue 05:23:00 AM -1.5031 -71.8525 134° Southeast  Level FlightAware Approximate
Tue 05:24:00 AM -1.5959 -71.7553 134° Southeast  Level FlightAware Approximate
Tue 05:25:00 AM -1.6888 -71.6580 134° Southeast  Level FlightAware Approximate
Tue 05:26:00 AM -1.7816 -71.5607 134° Southeast  Level FlightAware Approximate
Tue 05:27:00 AM -1.8744 -71.4635 134° Southeast  Level FlightAware Approximate
Tue 05:28:00 AM -1.9672 -71.3662 134° Southeast  Level FlightAware Approximate
Tue 05:29:00 AM -2.0600 -71.2689 134° Southeast  Level FlightAware Approximate
Tue 05:30:00 AM -2.1528 -71.1716 134° Southeast  Level FlightAware Approximate
Tue 05:31:00 AM -2.2456 -71.0742 134° Southeast  Level FlightAware Approximate
Tue 05:32:00 AM -2.3384 -70.9769 134° Southeast  Level FlightAware Approximate
Tue 05:33:00 AM -2.4311 -70.8795 134° Southeast  Level FlightAware Approximate
Tue 05:34:00 AM -2.5239 -70.7822 134° Southeast  Level FlightAware Approximate
Tue 05:35:00 AM -2.6167 -70.6848 134° Southeast  Level FlightAware Approximate
Tue 05:36:00 AM -2.7094 -70.5874 134° Southeast  Level FlightAware Approximate
Tue 05:37:00 AM -2.8021 -70.4900 134° Southeast  Level FlightAware Approximate
Tue 05:38:00 AM -2.8949 -70.3926 134° Southeast  Level FlightAware Approximate
Tue 05:39:00 AM -2.9876 -70.2952 134° Southeast  Level FlightAware Approximate
Tue 05:40:00 AM -3.0803 -70.1977 134° Southeast  Level FlightAware Approximate
Tue 05:41:00 AM -3.1730 -70.1002 134° Southeast  Level FlightAware Approximate
Tue 05:42:00 AM -3.2657 -70.0027 134° Southeast  Level FlightAware Approximate
Tue 05:43:00 AM -3.3584 -69.9052 134° Southeast  Level FlightAware Approximate
Tue 05:44:00 AM -3.4511 -69.8077 134° Southeast  Level FlightAware Approximate
Tue 05:45:00 AM -3.5438 -69.7102 134° Southeast  Level FlightAware Approximate
Tue 05:46:00 AM -3.6364 -69.6126 134° Southeast  Level FlightAware Approximate
Tue 05:47:00 AM -3.7291 -69.5150 134° Southeast  Level FlightAware Approximate
Tue 05:48:00 AM -3.8217 -69.4174 134° Southeast  Level FlightAware Approximate
Tue 05:49:00 AM -3.9144 -69.3198 134° Southeast  Level FlightAware Approximate
Tue 05:50:00 AM -4.0070 -69.2222 134° Southeast  Level FlightAware Approximate
Tue 05:51:00 AM -4.0996 -69.1245 134° Southeast  Level FlightAware Approximate
Tue 05:52:00 AM -4.1922 -69.0268 134° Southeast  Level FlightAware Approximate
Tue 05:53:00 AM -4.2848 -68.9291 134° Southeast  Level FlightAware Approximate
Tue 05:54:00 AM -4.3773 -68.8313 134° Southeast  Level FlightAware Approximate
Tue 05:55:00 AM -4.4699 -68.7336 134° Southeast  Level FlightAware Approximate
Tue 05:56:00 AM -4.5624 -68.6358 134° Southeast  Level FlightAware Approximate
Tue 05:57:00 AM -4.6550 -68.5380 134° Southeast  Level FlightAware Approximate
Tue 05:58:00 AM -4.7475 -68.4401 133° Southeast  Level FlightAware Approximate
Tue 05:59:00 AM -4.8400 -68.3423 133° Southeast  Level FlightAware Approximate
Tue 06:00:00 AM -4.9325 -68.2444 133° Southeast  Level FlightAware Approximate
Tue 06:01:00 AM -5.0250 -68.1465 133° Southeast  Level FlightAware Approximate
Tue 06:02:00 AM -5.1174 -68.0485 133° Southeast  Level FlightAware Approximate
Tue 06:03:00 AM -5.2099 -67.9505 133° Southeast  Level FlightAware Approximate
Tue 06:04:00 AM -5.3023 -67.8525 133° Southeast  Level FlightAware Approximate
Tue 06:05:00 AM -5.3947 -67.7545 133° Southeast  Level FlightAware Approximate
Tue 06:06:00 AM -5.4871 -67.6565 133° Southeast  Level FlightAware Approximate
Tue 06:07:00 AM -5.5795 -67.5584 133° Southeast  Level FlightAware Approximate
Tue 06:08:00 AM -5.6719 -67.4603 133° Southeast  Level FlightAware Approximate
Tue 06:09:00 AM -5.7642 -67.3621 133° Southeast  Level FlightAware Approximate
Tue 06:10:00 AM -5.8565 -67.2639 133° Southeast  Level FlightAware Approximate
Tue 06:11:00 AM -5.9489 -67.1657 133° Southeast  Level FlightAware Approximate
Tue 06:12:00 AM -6.0412 -67.0674 133° Southeast  Level FlightAware Approximate
Tue 06:13:00 AM -6.1334 -66.9691 133° Southeast  Level FlightAware Approximate
Tue 06:14:00 AM -6.2257 -66.8708 133° Southeast  Level FlightAware Approximate
Tue 06:15:00 AM -6.3179 -66.7725 133° Southeast  Level FlightAware Approximate
Tue 06:16:00 AM -6.4102 -66.6741 133° Southeast  Level FlightAware Approximate
Tue 06:17:00 AM -6.5024 -66.5757 133° Southeast  Level FlightAware Approximate
Tue 06:18:00 AM -6.5946 -66.4772 133° Southeast  Level FlightAware Approximate
Tue 06:19:00 AM -6.6867 -66.3787 133° Southeast  Level FlightAware Approximate
Tue 06:20:00 AM -6.7789 -66.2802 133° Southeast  Level FlightAware Approximate
Tue 06:21:00 AM -6.8710 -66.1816 133° Southeast  Level FlightAware Approximate
Tue 06:22:00 AM -6.9631 -66.0830 133° Southeast  Level FlightAware Approximate
Tue 06:23:00 AM -7.0552 -65.9843 133° Southeast  Level FlightAware Approximate
Tue 06:24:00 AM -7.1473 -65.8856 133° Southeast  Level FlightAware Approximate
Tue 06:25:00 AM -7.2393 -65.7869 133° Southeast  Level FlightAware Approximate
Tue 06:26:00 AM -7.3314 -65.6881 133° Southeast  Level FlightAware Approximate
Tue 06:27:00 AM -7.4234 -65.5893 133° Southeast  Level FlightAware Approximate
Tue 06:28:00 AM -7.5154 -65.4905 133° Southeast  Level FlightAware Approximate
Tue 06:29:00 AM -7.6073 -65.3916 133° Southeast  Level FlightAware Approximate
Tue 06:30:00 AM -7.6993 -65.2926 133° Southeast  Level FlightAware Approximate
Tue 06:31:00 AM -7.7912 -65.1937 133° Southeast  Level FlightAware Approximate
Tue 06:32:00 AM -7.8831 -65.0946 133° Southeast  Level FlightAware Approximate
Tue 06:33:00 AM -7.9749 -64.9956 133° Southeast  Level FlightAware Approximate
Tue 06:34:00 AM -8.0668 -64.8965 133° Southeast  Level FlightAware Approximate
Tue 06:35:00 AM -8.1586 -64.7973 133° Southeast  Level FlightAware Approximate
Tue 06:36:00 AM -8.2504 -64.6981 133° Southeast  Level FlightAware Approximate
Tue 06:37:00 AM -8.3422 -64.5988 133° Southeast  Level FlightAware Approximate
Tue 06:38:00 AM -8.4339 -64.4996 133° Southeast  Level FlightAware Approximate
Tue 06:39:00 AM -8.5257 -64.4002 133° Southeast  Level FlightAware Approximate
Tue 06:40:00 AM -8.6174 -64.3008 133° Southeast  Level FlightAware Approximate
Tue 06:41:00 AM -8.7090 -64.2014 133° Southeast  Level FlightAware Approximate
Tue 06:42:00 AM -8.8007 -64.1019 133° Southeast  Level FlightAware Approximate
Tue 06:43:00 AM -8.8923 -64.0024 133° Southeast  Level FlightAware Approximate
Tue 06:44:00 AM -8.9839 -63.9028 133° Southeast  Level FlightAware Approximate
Tue 06:45:00 AM -9.0755 -63.8031 133° Southeast  Level FlightAware Approximate
Tue 06:46:00 AM -9.1670 -63.7034 133° Southeast  Level FlightAware Approximate
Tue 06:47:00 AM -9.2585 -63.6037 133° Southeast  Level FlightAware Approximate
Tue 06:48:00 AM -9.3500 -63.5039 133° Southeast  Level FlightAware Approximate
Tue 06:49:00 AM -9.4415 -63.4041 133° Southeast  Level FlightAware Approximate
Tue 06:50:00 AM -9.5329 -63.3042 133° Southeast  Level FlightAware Approximate
Tue 06:51:00 AM -9.6243 -63.2042 133° Southeast  Level FlightAware Approximate
Tue 06:52:00 AM -9.7157 -63.1042 133° Southeast  Level FlightAware Approximate
Tue 06:53:00 AM -9.8070 -63.0042 133° Southeast  Level FlightAware Approximate
Tue 06:54:00 AM -9.8983 -62.9041 133° Southeast  Level FlightAware Approximate
Tue 06:55:00 AM -9.9896 -62.8039 133° Southeast  Level FlightAware Approximate
Tue 06:56:00 AM -10.0809 -62.7037 133° Southeast  Level FlightAware Approximate
Tue 06:57:00 AM -10.1721 -62.6034 133° Southeast  Level FlightAware Approximate
Tue 06:58:00 AM -10.2633 -62.5031 133° Southeast  Level FlightAware Approximate
Tue 06:59:00 AM -10.3545 -62.4027 133° Southeast  Level FlightAware Approximate
Tue 07:00:00 AM -10.4456 -62.3022 133° Southeast  Level FlightAware Approximate
Tue 07:01:00 AM -10.5367 -62.2017 133° Southeast  Level FlightAware Approximate
Tue 07:02:00 AM -10.6278 -62.1011 133° Southeast  Level FlightAware Approximate
Tue 07:03:00 AM -10.7188 -62.0005 133° Southeast  Level FlightAware Approximate
Tue 07:04:00 AM -10.8098 -61.8998 133° Southeast  Level FlightAware Approximate
Tue 07:05:00 AM -10.9008 -61.7991 133° Southeast  Level FlightAware Approximate
Tue 07:06:00 AM -10.9917 -61.6982 133° Southeast  Level FlightAware Approximate
Tue 07:07:00 AM -11.0826 -61.5974 133° Southeast  Level FlightAware Approximate
Tue 07:08:00 AM -11.1735 -61.4964 133° Southeast  Level FlightAware Approximate
Tue 07:09:00 AM -11.2643 -61.3954 133° Southeast  Level FlightAware Approximate
Tue 07:10:00 AM -11.3552 -61.2943 133° Southeast  Level FlightAware Approximate
Tue 07:11:00 AM -11.4459 -61.1932 132° Southeast  Level FlightAware Approximate
Tue 07:12:00 AM -11.5367 -61.0920 132° Southeast  Level FlightAware Approximate
Tue 07:13:00 AM -11.6274 -60.9908 132° Southeast  Level FlightAware Approximate
Tue 07:14:00 AM -11.7180 -60.8894 132° Southeast  Level FlightAware Approximate
Tue 07:15:00 AM -11.8087 -60.7880 132° Southeast  Level FlightAware Approximate
Tue 07:16:00 AM -11.8993 -60.6866 132° Southeast  Level FlightAware Approximate
Tue 07:17:00 AM -11.9898 -60.5850 132° Southeast  Level FlightAware Approximate
Tue 07:18:00 AM -12.0803 -60.4834 132° Southeast  Level FlightAware Approximate
Tue 07:19:00 AM -12.1708 -60.3818 132° Southeast  Level FlightAware Approximate
Tue 07:20:00 AM -12.2613 -60.2800 132° Southeast  Level FlightAware Approximate
Tue 07:21:00 AM -12.3517 -60.1782 132° Southeast  Level FlightAware Approximate
Tue 07:22:00 AM -12.4420 -60.0763 132° Southeast  Level FlightAware Approximate
Tue 07:23:00 AM -12.5324 -59.9744 132° Southeast  Level FlightAware Approximate
Tue 07:24:00 AM -12.6227 -59.8724 132° Southeast  Level FlightAware Approximate
Tue 07:25:00 AM -12.7129 -59.7703 132° Southeast  Level FlightAware Approximate
Tue 07:26:00 AM -12.8032 -59.6681 132° Southeast  Level FlightAware Approximate
Tue 07:27:00 AM -12.8933 -59.5659 132° Southeast  Level FlightAware Approximate
Tue 07:28:00 AM -12.9835 -59.4636 132° Southeast  Level FlightAware Approximate
Tue 07:29:00 AM -13.0736 -59.3612 132° Southeast  Level FlightAware Approximate
Tue 07:30:00 AM -13.1636 -59.2587 132° Southeast  Level FlightAware Approximate
Tue 07:31:00 AM -13.2536 -59.1562 132° Southeast  Level FlightAware Approximate
Tue 07:32:00 AM -13.3436 -59.0536 132° Southeast  Level FlightAware Approximate
Tue 07:33:00 AM -13.4336 -58.9509 132° Southeast  Level FlightAware Approximate
Tue 07:34:00 AM -13.5234 -58.8481 132° Southeast  Level FlightAware Approximate
Tue 07:35:00 AM -13.6133 -58.7453 132° Southeast  Level FlightAware Approximate
Tue 07:36:00 AM -13.7031 -58.6424 132° Southeast  Level FlightAware Approximate
Tue 07:37:00 AM -13.7929 -58.5394 132° Southeast  Level FlightAware Approximate
Tue 07:38:00 AM -13.8826 -58.4363 132° Southeast  Level FlightAware Approximate
Tue 07:39:00 AM -13.9723 -58.3331 132° Southeast  Level FlightAware Approximate
Tue 07:40:00 AM -14.0619 -58.2299 132° Southeast  Level FlightAware Approximate
Tue 07:41:00 AM -14.1515 -58.1266 132° Southeast  Level FlightAware Approximate
Tue 07:42:00 AM -14.2411 -58.0232 132° Southeast  Level FlightAware Approximate
Tue 07:43:00 AM -14.3306 -57.9197 132° Southeast  Level FlightAware Approximate
Tue 07:44:00 AM -14.4200 -57.8161 132° Southeast  Level FlightAware Approximate
Tue 07:45:00 AM -14.5094 -57.7125 132° Southeast  Level FlightAware Approximate
Tue 07:46:00 AM -14.5988 -57.6088 132° Southeast  Level FlightAware Approximate
Tue 07:47:00 AM -14.6881 -57.5049 132° Southeast  Level FlightAware Approximate
Tue 07:48:00 AM -14.7774 -57.4010 132° Southeast  Level FlightAware Approximate
Tue 07:49:00 AM -14.8666 -57.2971 132° Southeast  Level FlightAware Approximate
Tue 07:50:00 AM -14.9558 -57.1930 132° Southeast  Level FlightAware Approximate
Tue 07:51:00 AM -15.0449 -57.0888 132° Southeast  Level FlightAware Approximate
Tue 07:52:00 AM -15.1340 -56.9846 132° Southeast  Level FlightAware Approximate
Tue 07:53:00 AM -15.2231 -56.8802 131° Southeast  Level FlightAware Approximate
Tue 07:54:00 AM -15.3121 -56.7758 131° Southeast  Level FlightAware Approximate
Tue 07:55:00 AM -15.4010 -56.6713 131° Southeast  Level FlightAware Approximate
Tue 07:56:00 AM -15.4899 -56.5667 131° Southeast  Level FlightAware Approximate
Tue 07:57:00 AM -15.5788 -56.4620 131° Southeast  Level FlightAware Approximate
Tue 07:58:00 AM -15.6676 -56.3572 131° Southeast  Level FlightAware Approximate
Tue 07:59:00 AM -15.7563 -56.2524 131° Southeast  Level FlightAware Approximate
Tue 08:00:00 AM -15.8450 -56.1474 131° Southeast  Level FlightAware Approximate
Tue 08:01:00 AM -15.9337 -56.0424 131° Southeast  Level FlightAware Approximate
Tue 08:02:00 AM -16.0222 -55.9372 131° Southeast  Level FlightAware Approximate
Tue 08:03:00 AM -16.1108 -55.8320 131° Southeast  Level FlightAware Approximate
Tue 08:04:00 AM -16.1993 -55.7266 131° Southeast  Level FlightAware Approximate
Tue 08:05:00 AM -16.2877 -55.6212 131° Southeast  Level FlightAware Approximate
Tue 08:06:00 AM -16.3761 -55.5157 131° Southeast  Level FlightAware Approximate
Tue 08:07:00 AM -16.4645 -55.4100 131° Southeast  Level FlightAware Approximate
Tue 08:08:00 AM -16.5527 -55.3043 131° Southeast  Level FlightAware Approximate
Tue 08:09:00 AM -16.6410 -55.1985 131° Southeast  Level FlightAware Approximate
Tue 08:10:00 AM -16.7291 -55.0926 131° Southeast  Level FlightAware Approximate
Tue 08:11:00 AM -16.8173 -54.9866 131° Southeast  Level FlightAware Approximate
Tue 08:12:00 AM -16.9053 -54.8805 131° Southeast  Level FlightAware Approximate
Tue 08:13:00 AM -16.9933 -54.7743 131° Southeast  Level FlightAware Approximate
Tue 08:14:00 AM -17.0813 -54.6680 131° Southeast  Level FlightAware Approximate
Tue 08:15:00 AM -17.1692 -54.5616 131° Southeast  Level FlightAware Approximate
Tue 08:16:00 AM -17.2570 -54.4550 131° Southeast  Level FlightAware Approximate
Tue 08:17:00 AM -17.3448 -54.3484 131° Southeast  Level FlightAware Approximate
Tue 08:18:00 AM -17.4326 -54.2417 131° Southeast  Level FlightAware Approximate
Tue 08:19:00 AM -17.5203 -54.1349 131° Southeast  Level FlightAware Approximate
Tue 08:20:00 AM -17.6079 -54.0280 131° Southeast  Level FlightAware Approximate
Tue 08:21:00 AM -17.6954 -53.9210 131° Southeast  Level FlightAware Approximate
Tue 08:22:00 AM -17.7829 -53.8138 131° Southeast  Level FlightAware Approximate
Tue 08:23:00 AM -17.8704 -53.7066 131° Southeast  Level FlightAware Approximate
Tue 08:24:00 AM -17.9578 -53.5993 131° Southeast  Level FlightAware Approximate
Tue 08:25:00 AM -18.0451 -53.4918 131° Southeast  Level FlightAware Approximate
Tue 08:26:00 AM -18.1324 -53.3843 131° Southeast  Level FlightAware Approximate
Tue 08:27:00 AM -18.2196 -53.2766 130° Southeast  Level FlightAware Approximate
Tue 08:28:00 AM -18.3067 -53.1689 130° Southeast  Level FlightAware Approximate
Tue 08:29:00 AM -18.3938 -53.0610 130° Southeast  Level FlightAware Approximate
Tue 08:30:00 AM -18.4809 -52.9530 130° Southeast  Level FlightAware Approximate
Tue 08:31:00 AM -18.5678 -52.8449 130° Southeast  Level FlightAware Approximate
Tue 08:32:00 AM -18.6547 -52.7367 130° Southeast  Level FlightAware Approximate
Tue 08:33:00 AM -18.7416 -52.6284 130° Southeast  Level FlightAware Approximate
Tue 08:34:00 AM -18.8283 -52.5200 130° Southeast  Level FlightAware Approximate
Tue 08:35:00 AM -18.9151 -52.4114 130° Southeast  Level FlightAware Approximate
Tue 08:36:00 AM -19.0017 -52.3028 130° Southeast  Level FlightAware Approximate
Tue 08:37:00 AM -19.0883 -52.1940 130° Southeast  Level FlightAware Approximate
Tue 08:38:00 AM -19.1748 -52.0852 130° Southeast  Level FlightAware Approximate
Tue 08:39:00 AM -19.2613 -51.9762 130° Southeast  Level FlightAware Approximate
Tue 08:40:00 AM -19.3477 -51.8671 130° Southeast  Level FlightAware Approximate
Tue 08:41:00 AM -19.4340 -51.7578 130° Southeast  Level FlightAware Approximate
Tue 08:42:00 AM -19.5203 -51.6485 130° Southeast  Level FlightAware Approximate
Tue 08:43:00 AM -19.6065 -51.5391 130° Southeast  Level FlightAware Approximate
Tue 08:44:00 AM -19.6926 -51.4295 130° Southeast  Level FlightAware Approximate
Tue 08:45:00 AM -19.7787 -51.3198 130° Southeast  Level FlightAware Approximate
Tue 08:46:00 AM -19.8647 -51.2100 130° Southeast  Level FlightAware Approximate
Tue 08:47:00 AM -19.9506 -51.1001 130° Southeast  Level FlightAware Approximate
Tue 08:48:00 AM -20.0365 -50.9900 130° Southeast  Level FlightAware Approximate
Tue 08:49:00 AM -20.1223 -50.8798 130° Southeast  Level FlightAware Approximate
Tue 08:50:00 AM -20.2080 -50.7695 130° Southeast  Level FlightAware Approximate
Tue 08:51:00 AM -20.2937 -50.6591 130° Southeast  Level FlightAware Approximate
Tue 08:52:00 AM -20.3793 -50.5486 130° Southeast  Level FlightAware Approximate
Tue 08:53:00 AM -20.4648 -50.4380 130° Southeast  Level FlightAware Approximate
Tue 08:54:00 AM -20.5502 -50.3272 129° Southeast  Level FlightAware Approximate
Tue 08:55:00 AM -20.6356 -50.2163 129° Southeast  Level FlightAware Approximate
Tue 08:56:00 AM -20.7209 -50.1052 129° Southeast  Level FlightAware Approximate
Tue 08:57:00 AM -20.8062 -49.9941 129° Southeast  Level FlightAware Approximate
Tue 08:58:00 AM -20.8913 -49.8828 129° Southeast  Level FlightAware Approximate
Tue 08:59:00 AM -20.9764 -49.7714 129° Southeast  Level FlightAware Approximate
Tue 09:00:00 AM -21.0615 -49.6599 129° Southeast  Level FlightAware Approximate
Tue 09:01:00 AM -21.1464 -49.5482 129° Southeast  Level FlightAware Approximate
Tue 09:02:00 AM -21.2313 -49.4364 129° Southeast  Level FlightAware Approximate
Tue 09:03:00 AM -21.3161 -49.3245 129° Southeast  Level FlightAware Approximate
Tue 09:04:00 AM -21.4008 -49.2125 129° Southeast  Level FlightAware Approximate
Tue 09:05:00 AM -21.4855 -49.1003 129° Southeast  Level FlightAware Approximate
Tue 09:06:00 AM -21.5700 -48.9880 129° Southeast  Level FlightAware Approximate
Tue 09:07:00 AM -21.6546 -48.8756 129° Southeast  Level FlightAware Approximate
Tue 09:08:00 AM -21.7390 -48.7630 129° Southeast  Level FlightAware Approximate
Tue 09:09:00 AM -21.8233 -48.6503 129° Southeast  Level FlightAware Approximate
Tue 09:10:00 AM -21.9076 -48.5375 129° Southeast  Level FlightAware Approximate
Tue 09:11:00 AM -21.9918 -48.4245 129° Southeast  Level FlightAware Approximate
Tue 09:12:00 AM -22.0759 -48.3114 129° Southeast  Level FlightAware Approximate
Tue 09:13:00 AM -22.1600 -48.1982 129° Southeast  Level FlightAware Approximate
Tue 09:14:00 AM -22.2400 -48.0817 126° Southeast  Level FlightAware Approximate
Tue 09:15:00 AM -22.3225 -47.9670 128° Southeast  Level FlightAware Approximate
Tue 09:16:00 AM -22.4057 -47.8529 128° Southeast  Level FlightAware Approximate
Tue 09:17:00 AM -22.4893 -47.7390 128° Southeast  Level FlightAware Approximate
Tue 09:18:00 AM -22.5730 -47.6251 130° Southeast  Level FlightAware Approximate
Tue 09:19:00 AM -22.6591 -47.5133 130° Southeast  Level FlightAware Approximate
Tue 09:20:00 AM -22.7450 -47.4012 129° Southeast  Level FlightAware Approximate
Tue 09:21:00 AM -22.8299 -47.2881 129° Southeast  Level FlightAware Approximate
Tue 09:22:00 AM -22.9147 -47.1749 129° Southeast  Level FlightAware Approximate
Tue 09:23:00 AM -22.9948 -47.0578 126° Southeast  Level FlightAware Approximate
Tue 09:24:00 AM -23.0760 -46.9414 128° Southeast  Level FlightAware Approximate
Tue 09:25:00 AM -23.1593 -46.8268 128° Southeast  Level FlightAware Approximate
Tue 09:26:00 AM -23.2408 -46.7119 122° Southeast  Level FlightAware Approximate
Tue 09:27:00 AM -23.3207 -46.5946 129° Southeast  Level FlightAware Approximate
Tue 09:28:00 AM -23.4058 -46.4812 129° Southeast  Level FlightAware Approximate
Tue 09:29:00 AM -23.4167 -46.4667 129° Southeast  Level FlightAware Approximate
Tue 09:30:00 AM -23.4321 -46.4695 129° Southeast  Level Estimated
Tue 09:31:00 AM -23.4321 -46.4695 129° Southeast  Level Estimated
Tue 09:32:00 AM -23.4321 -46.4695 129° Southeast  Level Estimated
Tue 09:33:00 AM -23.4321 -46.4695 129° Southeast  Level Estimated
Tue 09:34:00 AM -23.4321 -46.4695 129° Southeast  Level Estimated
Tue 09:35:00 AM -23.4321 -46.4695 129° Southeast  Level Estimated
Tue 09:36:00 AM -23.4321 -46.4695 129° Southeast  Level Estimated
Tue 09:37:00 AM -23.4321 -46.4695 129° Southeast  Level Estimated

Login

Don't have an account? Register now (free) for customized features, flight alerts, and more!